sensor_id;sensor_type;location;lat;lon;timestamp;P1;durP1;ratioP1;P2;durP2;ratioP2
1154;SDS011;566;48.414;9.118;2023-02-15T00:01:51;8.63;;;4.25;;
1154;SDS011;566;48.414;9.118;2023-02-15T00:04:18;9.07;;;3.80;;
1154;SDS011;566;48.414;9.118;2023-02-15T00:06:45;8.07;;;4.45;;
1154;SDS011;566;48.414;9.118;2023-02-15T00:09:11;6.95;;;4.07;;
1154;SDS011;566;48.414;9.118;2023-02-15T00:11:37;4.72;;;2.72;;
1154;SDS011;566;48.414;9.118;2023-02-15T00:14:17;5.30;;;3.10;;
1154;SDS011;566;48.414;9.118;2023-02-15T00:16:45;6.35;;;3.00;;
1154;SDS011;566;48.414;9.118;2023-02-15T00:19:12;6.45;;;3.20;;
1154;SDS011;566;48.414;9.118;2023-02-15T00:21:39;5.55;;;3.40;;
1154;SDS011;566;48.414;9.118;2023-02-15T00:24:06;5.85;;;3.42;;
1154;SDS011;566;48.414;9.118;2023-02-15T00:26:33;6.15;;;3.15;;
1154;SDS011;566;48.414;9.118;2023-02-15T00:28:59;9.88;;;3.78;;
1154;SDS011;566;48.414;9.118;2023-02-15T00:31:25;8.63;;;3.95;;
1154;SDS011;566;48.414;9.118;2023-02-15T00:33:52;7.50;;;4.22;;
1154;SDS011;566;48.414;9.118;2023-02-15T00:36:18;9.63;;;4.88;;
1154;SDS011;566;48.414;9.118;2023-02-15T00:38:44;9.18;;;3.63;;
1154;SDS011;566;48.414;9.118;2023-02-15T00:41:10;6.60;;;3.70;;
1154;SDS011;566;48.414;9.118;2023-02-15T00:43:36;10.02;;;4.63;;
1154;SDS011;566;48.414;9.118;2023-02-15T00:46:03;7.75;;;4.25;;
1154;SDS011;566;48.414;9.118;2023-02-15T00:48:30;7.07;;;4.00;;
1154;SDS011;566;48.414;9.118;2023-02-15T00:50:56;6.88;;;3.88;;
1154;SDS011;566;48.414;9.118;2023-02-15T00:53:24;6.18;;;3.25;;
1154;SDS011;566;48.414;9.118;2023-02-15T00:55:50;5.65;;;3.00;;
1154;SDS011;566;48.414;9.118;2023-02-15T00:58:16;9.10;;;3.70;;
1154;SDS011;566;48.414;9.118;2023-02-15T01:00:43;5.97;;;3.20;;
1154;SDS011;566;48.414;9.118;2023-02-15T01:03:10;8.25;;;3.67;;
1154;SDS011;566;48.414;9.118;2023-02-15T01:05:36;7.60;;;4.13;;
1154;SDS011;566;48.414;9.118;2023-02-15T01:08:02;8.95;;;5.05;;
1154;SDS011;566;48.414;9.118;2023-02-15T01:10:28;10.05;;;5.38;;
1154;SDS011;566;48.414;9.118;2023-02-15T01:12:54;10.70;;;5.38;;
1154;SDS011;566;48.414;9.118;2023-02-15T01:15:20;10.90;;;5.90;;
1154;SDS011;566;48.414;9.118;2023-02-15T01:17:47;11.98;;;5.85;;
1154;SDS011;566;48.414;9.118;2023-02-15T01:20:24;11.30;;;5.65;;
1154;SDS011;566;48.414;9.118;2023-02-15T01:22:51;10.15;;;5.63;;
1154;SDS011;566;48.414;9.118;2023-02-15T01:25:20;10.15;;;5.18;;
1154;SDS011;566;48.414;9.118;2023-02-15T01:27:46;8.40;;;3.97;;
1154;SDS011;566;48.414;9.118;2023-02-15T01:30:13;10.05;;;4.57;;
1154;SDS011;566;48.414;9.118;2023-02-15T01:32:39;6.68;;;3.70;;
1154;SDS011;566;48.414;9.118;2023-02-15T01:35:05;6.05;;;3.13;;
1154;SDS011;566;48.414;9.118;2023-02-15T01:37:31;6.38;;;2.92;;
1154;SDS011;566;48.414;9.118;2023-02-15T01:39:58;6.57;;;3.35;;
1154;SDS011;566;48.414;9.118;2023-02-15T01:42:31;6.45;;;3.40;;
1154;SDS011;566;48.414;9.118;2023-02-15T01:44:58;8.13;;;4.05;;
1154;SDS011;566;48.414;9.118;2023-02-15T01:50:10;8.48;;;4.13;;
1154;SDS011;566;48.414;9.118;2023-02-15T01:52:43;8.68;;;4.03;;
1154;SDS011;566;48.414;9.118;2023-02-15T01:55:27;9.38;;;3.92;;
1154;SDS011;566;48.414;9.118;2023-02-15T01:57:57;6.22;;;3.55;;
1154;SDS011;566;48.414;9.118;2023-02-15T02:00:24;6.40;;;3.63;;
1154;SDS011;566;48.414;9.118;2023-02-15T02:02:50;6.97;;;3.50;;
1154;SDS011;566;48.414;9.118;2023-02-15T02:05:18;8.65;;;3.22;;
1154;SDS011;566;48.414;9.118;2023-02-15T02:07:44;5.05;;;2.80;;
1154;SDS011;566;48.414;9.118;2023-02-15T02:10:13;5.05;;;2.78;;
1154;SDS011;566;48.414;9.118;2023-02-15T02:12:42;5.30;;;2.88;;
1154;SDS011;566;48.414;9.118;2023-02-15T02:15:11;4.97;;;2.90;;
1154;SDS011;566;48.414;9.118;2023-02-15T02:20:30;6.32;;;3.05;;
1154;SDS011;566;48.414;9.118;2023-02-15T02:23:18;5.75;;;2.95;;
1154;SDS011;566;48.414;9.118;2023-02-15T02:39:33;6.10;;;3.30;;
1154;SDS011;566;48.414;9.118;2023-02-15T02:42:29;5.93;;;3.00;;
1154;SDS011;566;48.414;9.118;2023-02-15T02:45:28;5.45;;;3.20;;
1154;SDS011;566;48.414;9.118;2023-02-15T02:48:08;6.32;;;3.17;;
1154;SDS011;566;48.414;9.118;2023-02-15T02:50:40;5.50;;;3.00;;
1154;SDS011;566;48.414;9.118;2023-02-15T02:53:07;4.97;;;2.80;;
1154;SDS011;566;48.414;9.118;2023-02-15T02:58:23;5.83;;;2.67;;
1154;SDS011;566;48.414;9.118;2023-02-15T03:00:55;3.88;;;2.28;;
1154;SDS011;566;48.414;9.118;2023-02-15T03:05:57;5.72;;;2.95;;
1154;SDS011;566;48.414;9.118;2023-02-15T03:08:39;5.97;;;3.65;;
1154;SDS011;566;48.414;9.118;2023-02-15T03:11:12;7.72;;;3.88;;
1154;SDS011;566;48.414;9.118;2023-02-15T03:13:38;6.60;;;3.95;;
1154;SDS011;566;48.414;9.118;2023-02-15T03:16:05;5.72;;;3.17;;
1154;SDS011;566;48.414;9.118;2023-02-15T03:19:09;4.82;;;2.70;;
1154;SDS011;566;48.414;9.118;2023-02-15T03:24:17;6.13;;;2.65;;
1154;SDS011;566;48.414;9.118;2023-02-15T03:26:48;6.32;;;2.85;;
1154;SDS011;566;48.414;9.118;2023-02-15T03:29:17;6.43;;;3.25;;
1154;SDS011;566;48.414;9.118;2023-02-15T03:31:46;5.82;;;3.08;;
1154;SDS011;566;48.414;9.118;2023-02-15T03:34:16;4.80;;;2.63;;
1154;SDS011;566;48.414;9.118;2023-02-15T03:44:49;5.75;;;2.85;;
1154;SDS011;566;48.414;9.118;2023-02-15T03:47:20;7.72;;;2.50;;
1154;SDS011;566;48.414;9.118;2023-02-15T03:49:54;5.20;;;2.40;;
1154;SDS011;566;48.414;9.118;2023-02-15T03:52:29;5.10;;;2.50;;
1154;SDS011;566;48.414;9.118;2023-02-15T03:54:56;4.82;;;2.40;;
1154;SDS011;566;48.414;9.118;2023-02-15T03:57:23;4.85;;;2.80;;
1154;SDS011;566;48.414;9.118;2023-02-15T04:00:21;6.55;;;3.03;;
1154;SDS011;566;48.414;9.118;2023-02-15T04:03:09;5.45;;;2.90;;
1154;SDS011;566;48.414;9.118;2023-02-15T04:05:39;6.72;;;3.30;;
1154;SDS011;566;48.414;9.118;2023-02-15T04:08:05;6.60;;;3.28;;
1154;SDS011;566;48.414;9.118;2023-02-15T04:10:31;6.93;;;3.05;;
1154;SDS011;566;48.414;9.118;2023-02-15T04:13:15;5.28;;;3.10;;
1154;SDS011;566;48.414;9.118;2023-02-15T04:15:42;5.82;;;3.30;;
1154;SDS011;566;48.414;9.118;2023-02-15T04:18:27;5.47;;;3.10;;
1154;SDS011;566;48.414;9.118;2023-02-15T04:21:16;8.02;;;4.05;;
1154;SDS011;566;48.414;9.118;2023-02-15T04:24:04;12.23;;;6.07;;
1154;SDS011;566;48.414;9.118;2023-02-15T04:26:49;11.07;;;5.80;;
1154;SDS011;566;48.414;9.118;2023-02-15T04:29:17;11.48;;;6.22;;
1154;SDS011;566;48.414;9.118;2023-02-15T04:31:43;7.88;;;5.30;;
1154;SDS011;566;48.414;9.118;2023-02-15T04:34:10;11.70;;;6.20;;
1154;SDS011;566;48.414;9.118;2023-02-15T04:36:39;15.73;;;5.70;;
1154;SDS011;566;48.414;9.118;2023-02-15T04:39:05;9.07;;;4.65;;
1154;SDS011;566;48.414;9.118;2023-02-15T04:41:31;7.38;;;3.78;;
1154;SDS011;566;48.414;9.118;2023-02-15T04:43:57;5.38;;;2.83;;
1154;SDS011;566;48.414;9.118;2023-02-15T04:46:24;8.40;;;4.80;;
1154;SDS011;566;48.414;9.118;2023-02-15T04:48:49;6.95;;;3.90;;
1154;SDS011;566;48.414;9.118;2023-02-15T04:51:15;7.53;;;3.83;;
1154;SDS011;566;48.414;9.118;2023-02-15T04:53:44;6.13;;;3.22;;
1154;SDS011;566;48.414;9.118;2023-02-15T04:56:09;8.38;;;3.60;;
1154;SDS011;566;48.414;9.118;2023-02-15T04:58:35;7.13;;;3.25;;
1154;SDS011;566;48.414;9.118;2023-02-15T05:01:02;9.10;;;3.90;;
1154;SDS011;566;48.414;9.118;2023-02-15T05:03:30;10.63;;;3.67;;
1154;SDS011;566;48.414;9.118;2023-02-15T05:05:56;6.85;;;3.40;;
1154;SDS011;566;48.414;9.118;2023-02-15T05:08:21;6.80;;;3.08;;
1154;SDS011;566;48.414;9.118;2023-02-15T05:10:47;5.05;;;2.90;;
1154;SDS011;566;48.414;9.118;2023-02-15T05:13:14;6.05;;;2.80;;
1154;SDS011;566;48.414;9.118;2023-02-15T05:15:40;4.60;;;2.40;;
1154;SDS011;566;48.414;9.118;2023-02-15T05:18:05;5.20;;;2.80;;
1154;SDS011;566;48.414;9.118;2023-02-15T05:20:32;7.43;;;4.18;;
1154;SDS011;566;48.414;9.118;2023-02-15T05:22:58;8.77;;;4.72;;
1154;SDS011;566;48.414;9.118;2023-02-15T05:25:23;8.70;;;4.85;;
1154;SDS011;566;48.414;9.118;2023-02-15T05:28:08;8.82;;;5.53;;
1154;SDS011;566;48.414;9.118;2023-02-15T05:30:44;10.95;;;5.38;;
1154;SDS011;566;48.414;9.118;2023-02-15T05:33:13;8.95;;;5.13;;
1154;SDS011;566;48.414;9.118;2023-02-15T05:35:39;10.10;;;5.57;;
1154;SDS011;566;48.414;9.118;2023-02-15T05:38:05;8.13;;;4.55;;
1154;SDS011;566;48.414;9.118;2023-02-15T05:40:31;6.88;;;3.92;;
1154;SDS011;566;48.414;9.118;2023-02-15T05:42:56;9.45;;;4.50;;
1154;SDS011;566;48.414;9.118;2023-02-15T05:45:22;9.18;;;4.03;;
1154;SDS011;566;48.414;9.118;2023-02-15T05:47:48;8.55;;;4.07;;
1154;SDS011;566;48.414;9.118;2023-02-15T05:50:13;19.55;;;8.95;;
1154;SDS011;566;48.414;9.118;2023-02-15T05:52:39;14.40;;;8.02;;
1154;SDS011;566;48.414;9.118;2023-02-15T05:55:05;34.30;;;14.02;;
1154;SDS011;566;48.414;9.118;2023-02-15T05:57:31;67.70;;;28.30;;
1154;SDS011;566;48.414;9.118;2023-02-15T05:59:57;60.10;;;27.75;;
1154;SDS011;566;48.414;9.118;2023-02-15T06:02:23;15.00;;;8.07;;
1154;SDS011;566;48.414;9.118;2023-02-15T06:04:48;13.35;;;7.03;;
1154;SDS011;566;48.414;9.118;2023-02-15T06:07:14;10.88;;;6.35;;
1154;SDS011;566;48.414;9.118;2023-02-15T06:09:39;27.55;;;15.80;;
1154;SDS011;566;48.414;9.118;2023-02-15T06:12:07;50.78;;;26.92;;
1154;SDS011;566;48.414;9.118;2023-02-15T06:14:32;25.95;;;15.50;;
1154;SDS011;566;48.414;9.118;2023-02-15T06:16:58;27.23;;;16.20;;
1154;SDS011;566;48.414;9.118;2023-02-15T06:19:23;13.68;;;8.18;;
1154;SDS011;566;48.414;9.118;2023-02-15T06:21:52;9.65;;;6.07;;
1154;SDS011;566;48.414;9.118;2023-02-15T06:24:17;15.20;;;9.55;;
1154;SDS011;566;48.414;9.118;2023-02-15T06:26:43;17.42;;;11.95;;
1154;SDS011;566;48.414;9.118;2023-02-15T06:29:08;18.15;;;10.40;;
1154;SDS011;566;48.414;9.118;2023-02-15T06:31:34;11.25;;;6.13;;
1154;SDS011;566;48.414;9.118;2023-02-15T06:33:59;6.57;;;3.92;;
1154;SDS011;566;48.414;9.118;2023-02-15T06:36:27;9.32;;;3.97;;
1154;SDS011;566;48.414;9.118;2023-02-15T06:38:54;7.00;;;3.53;;
1154;SDS011;566;48.414;9.118;2023-02-15T06:41:20;6.22;;;3.80;;
1154;SDS011;566;48.414;9.118;2023-02-15T06:43:45;5.82;;;3.33;;
1154;SDS011;566;48.414;9.118;2023-02-15T06:46:11;5.95;;;3.70;;
1154;SDS011;566;48.414;9.118;2023-02-15T06:48:37;17.40;;;6.93;;
1154;SDS011;566;48.414;9.118;2023-02-15T06:51:02;8.93;;;4.65;;
1154;SDS011;566;48.414;9.118;2023-02-15T06:53:28;5.78;;;3.25;;
1154;SDS011;566;48.414;9.118;2023-02-15T06:56:01;5.63;;;3.00;;
1154;SDS011;566;48.414;9.118;2023-02-15T06:58:28;9.90;;;3.80;;
1154;SDS011;566;48.414;9.118;2023-02-15T07:00:53;7.15;;;4.43;;
1154;SDS011;566;48.414;9.118;2023-02-15T07:03:19;7.05;;;4.05;;
1154;SDS011;566;48.414;9.118;2023-02-15T07:05:44;6.95;;;3.22;;
1154;SDS011;566;48.414;9.118;2023-02-15T07:08:12;6.25;;;3.42;;
1154;SDS011;566;48.414;9.118;2023-02-15T07:10:37;5.85;;;3.38;;
1154;SDS011;566;48.414;9.118;2023-02-15T07:13:06;6.53;;;4.05;;
1154;SDS011;566;48.414;9.118;2023-02-15T07:15:31;8.73;;;4.18;;
1154;SDS011;566;48.414;9.118;2023-02-15T07:17:57;9.35;;;5.07;;
1154;SDS011;566;48.414;9.118;2023-02-15T07:20:24;8.77;;;5.22;;
1154;SDS011;566;48.414;9.118;2023-02-15T07:22:49;7.18;;;3.70;;
1154;SDS011;566;48.414;9.118;2023-02-15T07:25:15;6.25;;;3.47;;
1154;SDS011;566;48.414;9.118;2023-02-15T07:27:42;8.60;;;5.18;;
1154;SDS011;566;48.414;9.118;2023-02-15T07:30:10;10.10;;;6.68;;
1154;SDS011;566;48.414;9.118;2023-02-15T07:32:37;9.38;;;6.65;;
1154;SDS011;566;48.414;9.118;2023-02-15T07:35:22;8.18;;;5.57;;
1154;SDS011;566;48.414;9.118;2023-02-15T07:37:49;7.85;;;4.90;;
1154;SDS011;566;48.414;9.118;2023-02-15T07:40:25;8.95;;;5.07;;
1154;SDS011;566;48.414;9.118;2023-02-15T07:42:50;10.45;;;5.47;;
1154;SDS011;566;48.414;9.118;2023-02-15T07:45:17;11.93;;;5.05;;
1154;SDS011;566;48.414;9.118;2023-02-15T07:47:43;8.93;;;5.22;;
1154;SDS011;566;48.414;9.118;2023-02-15T07:50:09;10.13;;;5.95;;
1154;SDS011;566;48.414;9.118;2023-02-15T07:52:34;9.13;;;5.38;;
1154;SDS011;566;48.414;9.118;2023-02-15T07:55:00;17.73;;;9.93;;
1154;SDS011;566;48.414;9.118;2023-02-15T07:57:25;15.70;;;9.10;;
1154;SDS011;566;48.414;9.118;2023-02-15T07:59:51;14.27;;;8.10;;
1154;SDS011;566;48.414;9.118;2023-02-15T08:02:16;8.00;;;4.35;;
1154;SDS011;566;48.414;9.118;2023-02-15T08:04:42;8.60;;;4.68;;
1154;SDS011;566;48.414;9.118;2023-02-15T08:07:07;10.70;;;6.53;;
1154;SDS011;566;48.414;9.118;2023-02-15T08:09:33;11.80;;;7.72;;
1154;SDS011;566;48.414;9.118;2023-02-15T08:11:59;23.75;;;15.80;;
1154;SDS011;566;48.414;9.118;2023-02-15T08:14:24;20.85;;;13.75;;
1154;SDS011;566;48.414;9.118;2023-02-15T08:16:52;20.25;;;13.65;;
1154;SDS011;566;48.414;9.118;2023-02-15T08:21:56;17.55;;;8.13;;
1154;SDS011;566;48.414;9.118;2023-02-15T08:24:40;12.45;;;7.43;;
1154;SDS011;566;48.414;9.118;2023-02-15T08:27:07;15.13;;;7.45;;
1154;SDS011;566;48.414;9.118;2023-02-15T08:29:34;12.10;;;6.88;;
1154;SDS011;566;48.414;9.118;2023-02-15T08:32:02;11.95;;;6.18;;
1154;SDS011;566;48.414;9.118;2023-02-15T08:34:31;16.27;;;6.43;;
1154;SDS011;566;48.414;9.118;2023-02-15T08:36:59;12.00;;;6.45;;
1154;SDS011;566;48.414;9.118;2023-02-15T08:39:25;8.40;;;4.43;;
1154;SDS011;566;48.414;9.118;2023-02-15T08:41:51;6.97;;;3.30;;
1154;SDS011;566;48.414;9.118;2023-02-15T08:44:17;5.80;;;3.40;;
1154;SDS011;566;48.414;9.118;2023-02-15T08:46:44;5.97;;;2.60;;
1154;SDS011;566;48.414;9.118;2023-02-15T08:49:12;4.57;;;2.47;;
1154;SDS011;566;48.414;9.118;2023-02-15T08:51:40;4.68;;;2.20;;
1154;SDS011;566;48.414;9.118;2023-02-15T08:54:06;5.22;;;2.15;;
1154;SDS011;566;48.414;9.118;2023-02-15T08:56:38;6.68;;;2.45;;
1154;SDS011;566;48.414;9.118;2023-02-15T08:59:07;4.47;;;2.28;;
1154;SDS011;566;48.414;9.118;2023-02-15T09:01:36;6.38;;;2.92;;
1154;SDS011;566;48.414;9.118;2023-02-15T09:04:03;6.45;;;3.58;;
1154;SDS011;566;48.414;9.118;2023-02-15T09:06:31;14.00;;;8.73;;
1154;SDS011;566;48.414;9.118;2023-02-15T09:08:57;14.23;;;8.88;;
1154;SDS011;566;48.414;9.118;2023-02-15T09:11:25;15.55;;;9.43;;
1154;SDS011;566;48.414;9.118;2023-02-15T09:13:56;15.15;;;7.95;;
1154;SDS011;566;48.414;9.118;2023-02-15T09:16:25;16.10;;;8.43;;
1154;SDS011;566;48.414;9.118;2023-02-15T09:18:53;21.55;;;7.97;;
1154;SDS011;566;48.414;9.118;2023-02-15T09:21:20;15.68;;;5.75;;
1154;SDS011;566;48.414;9.118;2023-02-15T09:23:48;5.68;;;2.70;;
1154;SDS011;566;48.414;9.118;2023-02-15T09:26:16;5.88;;;1.60;;
1154;SDS011;566;48.414;9.118;2023-02-15T09:28:43;3.90;;;1.50;;
1154;SDS011;566;48.414;9.118;2023-02-15T09:31:13;7.72;;;1.85;;
1154;SDS011;566;48.414;9.118;2023-02-15T09:33:41;6.10;;;1.58;;
1154;SDS011;566;48.414;9.118;2023-02-15T09:36:25;7.10;;;3.25;;
1154;SDS011;566;48.414;9.118;2023-02-15T09:38:57;20.90;;;10.13;;
1154;SDS011;566;48.414;9.118;2023-02-15T09:44:13;14.20;;;7.00;;
1154;SDS011;566;48.414;9.118;2023-02-15T10:01:15;10.20;;;5.32;;
1154;SDS011;566;48.414;9.118;2023-02-15T10:06:42;13.05;;;6.68;;
1154;SDS011;566;48.414;9.118;2023-02-15T10:11:55;11.48;;;5.80;;
1154;SDS011;566;48.414;9.118;2023-02-15T10:15:11;11.50;;;6.15;;
1154;SDS011;566;48.414;9.118;2023-02-15T10:26:28;15.55;;;6.82;;
1154;SDS011;566;48.414;9.118;2023-02-15T10:37:04;15.07;;;7.43;;
1154;SDS011;566;48.414;9.118;2023-02-15T10:45:29;7.85;;;3.22;;
1154;SDS011;566;48.414;9.118;2023-02-15T10:51:17;7.88;;;2.97;;
1154;SDS011;566;48.414;9.118;2023-02-15T10:54:04;7.20;;;2.33;;
1154;SDS011;566;48.414;9.118;2023-02-15T10:56:59;7.22;;;2.40;;
1154;SDS011;566;48.414;9.118;2023-02-15T10:59:45;13.13;;;3.15;;
1154;SDS011;566;48.414;9.118;2023-02-15T11:02:32;7.13;;;2.45;;
1154;SDS011;566;48.414;9.118;2023-02-15T11:05:35;12.10;;;2.75;;
1154;SDS011;566;48.414;9.118;2023-02-15T11:08:15;9.65;;;3.13;;
1154;SDS011;566;48.414;9.118;2023-02-15T11:13:16;7.93;;;2.25;;
1154;SDS011;566;48.414;9.118;2023-02-15T11:15:53;8.05;;;2.95;;
1154;SDS011;566;48.414;9.118;2023-02-15T11:18:28;10.32;;;2.97;;
1154;SDS011;566;48.414;9.118;2023-02-15T11:21:52;8.52;;;2.20;;
1154;SDS011;566;48.414;9.118;2023-02-15T11:24:14;7.00;;;2.60;;
1154;SDS011;566;48.414;9.118;2023-02-15T11:26:54;9.60;;;3.10;;
1154;SDS011;566;48.414;9.118;2023-02-15T11:29:33;7.05;;;2.70;;
1154;SDS011;566;48.414;9.118;2023-02-15T11:37:46;5.83;;;2.87;;
1154;SDS011;566;48.414;9.118;2023-02-15T11:40:30;7.70;;;3.50;;
1154;SDS011;566;48.414;9.118;2023-02-15T11:45:41;5.85;;;3.53;;
1154;SDS011;566;48.414;9.118;2023-02-15T11:48:11;11.68;;;3.70;;
1154;SDS011;566;48.414;9.118;2023-02-15T11:50:39;9.40;;;3.53;;
1154;SDS011;566;48.414;9.118;2023-02-15T11:53:12;6.47;;;3.50;;
1154;SDS011;566;48.414;9.118;2023-02-15T11:55:44;8.18;;;3.55;;
1154;SDS011;566;48.414;9.118;2023-02-15T12:03:52;10.10;;;3.50;;
1154;SDS011;566;48.414;9.118;2023-02-15T12:06:35;8.90;;;3.97;;
1154;SDS011;566;48.414;9.118;2023-02-15T12:09:09;7.00;;;3.58;;
1154;SDS011;566;48.414;9.118;2023-02-15T12:14:48;6.85;;;3.25;;
1154;SDS011;566;48.414;9.118;2023-02-15T12:17:15;6.60;;;3.25;;
1154;SDS011;566;48.414;9.118;2023-02-15T12:19:42;7.57;;;3.50;;
1154;SDS011;566;48.414;9.118;2023-02-15T12:22:17;8.40;;;3.78;;
1154;SDS011;566;48.414;9.118;2023-02-15T12:24:45;8.10;;;3.58;;
1154;SDS011;566;48.414;9.118;2023-02-15T12:27:15;6.43;;;3.60;;
1154;SDS011;566;48.414;9.118;2023-02-15T12:29:51;10.90;;;4.13;;
1154;SDS011;566;48.414;9.118;2023-02-15T12:32:24;7.05;;;3.70;;
1154;SDS011;566;48.414;9.118;2023-02-15T12:34:53;8.38;;;3.95;;
1154;SDS011;566;48.414;9.118;2023-02-15T12:37:25;10.02;;;4.10;;
1154;SDS011;566;48.414;9.118;2023-02-15T12:39:57;8.15;;;3.80;;
1154;SDS011;566;48.414;9.118;2023-02-15T12:42:24;10.68;;;3.72;;
1154;SDS011;566;48.414;9.118;2023-02-15T12:47:28;8.30;;;3.88;;
1154;SDS011;566;48.414;9.118;2023-02-15T12:52:47;8.07;;;3.88;;
1154;SDS011;566;48.414;9.118;2023-02-15T12:57:47;9.83;;;4.53;;
1154;SDS011;566;48.414;9.118;2023-02-15T13:02:47;11.25;;;4.47;;
1154;SDS011;566;48.414;9.118;2023-02-15T13:05:35;9.73;;;4.38;;
1154;SDS011;566;48.414;9.118;2023-02-15T13:08:11;6.60;;;4.13;;
1154;SDS011;566;48.414;9.118;2023-02-15T13:10:41;7.65;;;3.78;;
1154;SDS011;566;48.414;9.118;2023-02-15T13:13:19;7.25;;;3.05;;
1154;SDS011;566;48.414;9.118;2023-02-15T13:15:50;5.50;;;3.00;;
1154;SDS011;566;48.414;9.118;2023-02-15T13:18:39;5.97;;;3.10;;
1154;SDS011;566;48.414;9.118;2023-02-15T13:21:15;7.22;;;4.13;;
1154;SDS011;566;48.414;9.118;2023-02-15T13:23:52;8.93;;;3.25;;
1154;SDS011;566;48.414;9.118;2023-02-15T13:26:23;7.65;;;3.72;;
1154;SDS011;566;48.414;9.118;2023-02-15T13:29:10;7.75;;;4.35;;
1154;SDS011;566;48.414;9.118;2023-02-15T13:31:42;6.55;;;3.55;;
1154;SDS011;566;48.414;9.118;2023-02-15T13:34:09;11.98;;;4.07;;
1154;SDS011;566;48.414;9.118;2023-02-15T13:39:40;9.55;;;4.05;;
1154;SDS011;566;48.414;9.118;2023-02-15T14:01:36;6.55;;;3.47;;
1154;SDS011;566;48.414;9.118;2023-02-15T14:10:19;9.45;;;4.45;;
1154;SDS011;566;48.414;9.118;2023-02-15T14:26:38;7.85;;;3.80;;
1154;SDS011;566;48.414;9.118;2023-02-15T14:29:11;7.13;;;3.80;;
1154;SDS011;566;48.414;9.118;2023-02-15T14:32:10;7.05;;;3.60;;
1154;SDS011;566;48.414;9.118;2023-02-15T14:34:53;9.73;;;4.22;;
1154;SDS011;566;48.414;9.118;2023-02-15T14:37:24;7.00;;;4.07;;
1154;SDS011;566;48.414;9.118;2023-02-15T14:40:12;7.25;;;3.60;;
1154;SDS011;566;48.414;9.118;2023-02-15T14:43:09;8.23;;;4.43;;
1154;SDS011;566;48.414;9.118;2023-02-15T14:46:02;6.43;;;3.90;;
1154;SDS011;566;48.414;9.118;2023-02-15T14:57:25;6.63;;;3.78;;
1154;SDS011;566;48.414;9.118;2023-02-15T15:04:55;7.75;;;4.55;;
1154;SDS011;566;48.414;9.118;2023-02-15T15:07:25;11.10;;;4.60;;
1154;SDS011;566;48.414;9.118;2023-02-15T15:17:57;10.98;;;4.93;;
1154;SDS011;566;48.414;9.118;2023-02-15T15:23:32;8.90;;;4.93;;
1154;SDS011;566;48.414;9.118;2023-02-15T15:25:44;10.30;;;4.03;;
1154;SDS011;566;48.414;9.118;2023-02-15T15:31:03;9.70;;;4.50;;
1154;SDS011;566;48.414;9.118;2023-02-15T15:50:44;5.33;;;2.50;;
1154;SDS011;566;48.414;9.118;2023-02-15T15:53:32;7.55;;;2.65;;
1154;SDS011;566;48.414;9.118;2023-02-15T15:55:59;7.95;;;2.80;;
1154;SDS011;566;48.414;9.118;2023-02-15T15:58:31;4.88;;;2.40;;
1154;SDS011;566;48.414;9.118;2023-02-15T16:01:02;6.68;;;2.58;;
1154;SDS011;566;48.414;9.118;2023-02-15T16:03:32;5.05;;;3.00;;
1154;SDS011;566;48.414;9.118;2023-02-15T16:05:58;6.28;;;2.65;;
1154;SDS011;566;48.414;9.118;2023-02-15T16:10:55;12.35;;;6.80;;
1154;SDS011;566;48.414;9.118;2023-02-15T16:13:21;9.35;;;4.32;;
1154;SDS011;566;48.414;9.118;2023-02-15T16:15:47;9.75;;;5.75;;
1154;SDS011;566;48.414;9.118;2023-02-15T16:18:17;13.40;;;6.35;;
1154;SDS011;566;48.414;9.118;2023-02-15T16:20:48;16.60;;;7.65;;
1154;SDS011;566;48.414;9.118;2023-02-15T16:28:54;8.60;;;4.93;;
1154;SDS011;566;48.414;9.118;2023-02-15T16:31:20;13.45;;;5.15;;
1154;SDS011;566;48.414;9.118;2023-02-15T16:33:51;7.93;;;4.60;;
1154;SDS011;566;48.414;9.118;2023-02-15T16:36:22;9.38;;;4.72;;
1154;SDS011;566;48.414;9.118;2023-02-15T16:41:17;11.05;;;5.35;;
1154;SDS011;566;48.414;9.118;2023-02-15T16:43:50;16.08;;;6.72;;
1154;SDS011;566;48.414;9.118;2023-02-15T16:48:43;9.68;;;4.60;;
1154;SDS011;566;48.414;9.118;2023-02-15T16:51:20;10.45;;;5.20;;
1154;SDS011;566;48.414;9.118;2023-02-15T16:53:48;9.77;;;4.38;;
1154;SDS011;566;48.414;9.118;2023-02-15T16:56:14;11.73;;;5.63;;
1154;SDS011;566;48.414;9.118;2023-02-15T16:58:43;15.05;;;7.03;;
1154;SDS011;566;48.414;9.118;2023-02-15T17:01:11;17.40;;;8.55;;
1154;SDS011;566;48.414;9.118;2023-02-15T17:03:39;13.90;;;6.80;;
1154;SDS011;566;48.414;9.118;2023-02-15T17:06:18;16.98;;;9.23;;
1154;SDS011;566;48.414;9.118;2023-02-15T17:08:44;15.85;;;9.48;;
1154;SDS011;566;48.414;9.118;2023-02-15T17:11:16;14.13;;;7.43;;
1154;SDS011;566;48.414;9.118;2023-02-15T17:19:01;18.75;;;8.57;;
1154;SDS011;566;48.414;9.118;2023-02-15T17:21:33;16.50;;;10.40;;
1154;SDS011;566;48.414;9.118;2023-02-15T17:24:05;16.05;;;7.38;;
1154;SDS011;566;48.414;9.118;2023-02-15T17:26:32;13.18;;;6.20;;
1154;SDS011;566;48.414;9.118;2023-02-15T17:29:01;14.93;;;7.40;;
1154;SDS011;566;48.414;9.118;2023-02-15T17:31:36;14.10;;;7.93;;
1154;SDS011;566;48.414;9.118;2023-02-15T17:34:02;13.73;;;7.88;;
1154;SDS011;566;48.414;9.118;2023-02-15T17:36:28;12.45;;;6.22;;
1154;SDS011;566;48.414;9.118;2023-02-15T17:41:28;15.82;;;9.40;;
1154;SDS011;566;48.414;9.118;2023-02-15T17:43:55;15.45;;;8.38;;
1154;SDS011;566;48.414;9.118;2023-02-15T17:46:21;20.88;;;9.75;;
1154;SDS011;566;48.414;9.118;2023-02-15T17:48:48;17.67;;;7.15;;
1154;SDS011;566;48.414;9.118;2023-02-15T17:51:18;13.68;;;6.53;;
1154;SDS011;566;48.414;9.118;2023-02-15T17:53:45;10.75;;;5.78;;
1154;SDS011;566;48.414;9.118;2023-02-15T17:56:30;15.15;;;6.47;;
1154;SDS011;566;48.414;9.118;2023-02-15T17:58:57;12.40;;;6.10;;
1154;SDS011;566;48.414;9.118;2023-02-15T18:01:23;12.15;;;6.90;;
1154;SDS011;566;48.414;9.118;2023-02-15T18:04:08;13.05;;;7.07;;
1154;SDS011;566;48.414;9.118;2023-02-15T18:06:58;13.15;;;7.35;;
1154;SDS011;566;48.414;9.118;2023-02-15T18:09:43;16.85;;;9.52;;
1154;SDS011;566;48.414;9.118;2023-02-15T18:12:28;22.10;;;13.35;;
1154;SDS011;566;48.414;9.118;2023-02-15T18:14:56;18.73;;;11.10;;
1154;SDS011;566;48.414;9.118;2023-02-15T18:17:27;13.30;;;8.20;;
1154;SDS011;566;48.414;9.118;2023-02-15T18:20:05;13.82;;;8.13;;
1154;SDS011;566;48.414;9.118;2023-02-15T18:22:42;13.23;;;8.38;;
1154;SDS011;566;48.414;9.118;2023-02-15T18:25:11;16.73;;;10.02;;
1154;SDS011;566;48.414;9.118;2023-02-15T18:27:42;15.43;;;10.18;;
1154;SDS011;566;48.414;9.118;2023-02-15T18:30:12;19.38;;;10.38;;
1154;SDS011;566;48.414;9.118;2023-02-15T18:32:38;17.45;;;9.65;;
1154;SDS011;566;48.414;9.118;2023-02-15T18:35:05;19.58;;;10.02;;
1154;SDS011;566;48.414;9.118;2023-02-15T18:37:31;15.00;;;9.68;;
1154;SDS011;566;48.414;9.118;2023-02-15T18:39:58;13.45;;;9.05;;
1154;SDS011;566;48.414;9.118;2023-02-15T18:42:26;14.50;;;8.40;;
1154;SDS011;566;48.414;9.118;2023-02-15T18:44:54;19.23;;;10.73;;
1154;SDS011;566;48.414;9.118;2023-02-15T18:47:24;14.88;;;8.80;;
1154;SDS011;566;48.414;9.118;2023-02-15T18:49:51;16.05;;;8.45;;
1154;SDS011;566;48.414;9.118;2023-02-15T18:52:18;17.85;;;10.52;;
1154;SDS011;566;48.414;9.118;2023-02-15T18:54:45;17.33;;;9.80;;
1154;SDS011;566;48.414;9.118;2023-02-15T18:57:12;18.02;;;11.23;;
1154;SDS011;566;48.414;9.118;2023-02-15T18:59:39;24.23;;;14.93;;
1154;SDS011;566;48.414;9.118;2023-02-15T19:02:10;26.63;;;15.43;;
1154;SDS011;566;48.414;9.118;2023-02-15T19:04:42;89.40;;;40.67;;
1154;SDS011;566;48.414;9.118;2023-02-15T19:07:12;29.45;;;14.63;;
1154;SDS011;566;48.414;9.118;2023-02-15T19:09:51;23.45;;;13.57;;
1154;SDS011;566;48.414;9.118;2023-02-15T19:12:20;25.23;;;15.00;;
1154;SDS011;566;48.414;9.118;2023-02-15T19:14:47;22.20;;;13.25;;
1154;SDS011;566;48.414;9.118;2023-02-15T19:17:14;28.95;;;13.80;;
1154;SDS011;566;48.414;9.118;2023-02-15T19:19:42;23.92;;;14.40;;
1154;SDS011;566;48.414;9.118;2023-02-15T19:22:12;23.95;;;14.35;;
1154;SDS011;566;48.414;9.118;2023-02-15T19:24:39;23.55;;;15.02;;
1154;SDS011;566;48.414;9.118;2023-02-15T19:27:13;26.90;;;14.02;;
1154;SDS011;566;48.414;9.118;2023-02-15T19:29:49;21.58;;;12.55;;